sensor_id;sensor_type;location;lat;lon;timestamp;temperature;humidity
9271;DHT22;4673;53.458;9.940;2023-05-15T00:01:43;11.50;71.20
9271;DHT22;4673;53.458;9.940;2023-05-15T00:04:09;11.50;71.50
9271;DHT22;4673;53.458;9.940;2023-05-15T00:06:34;11.50;72.10
9271;DHT22;4673;53.458;9.940;2023-05-15T00:09:00;11.50;72.20
9271;DHT22;4673;53.458;9.940;2023-05-15T00:11:26;11.50;72.30
9271;DHT22;4673;53.458;9.940;2023-05-15T00:13:53;11.50;72.50
9271;DHT22;4673;53.458;9.940;2023-05-15T00:16:18;11.50;72.60
9271;DHT22;4673;53.458;9.940;2023-05-15T00:18:44;11.40;72.70
9271;DHT22;4673;53.458;9.940;2023-05-15T00:21:10;11.40;72.90
9271;DHT22;4673;53.458;9.940;2023-05-15T00:23:35;11.40;73.60
9271;DHT22;4673;53.458;9.940;2023-05-15T00:26:01;11.40;73.50
9271;DHT22;4673;53.458;9.940;2023-05-15T00:28:27;11.40;73.50
9271;DHT22;4673;53.458;9.940;2023-05-15T00:30:52;11.40;73.90
9271;DHT22;4673;53.458;9.940;2023-05-15T00:33:18;11.40;74.30
9271;DHT22;4673;53.458;9.940;2023-05-15T00:35:44;11.40;74.20
9271;DHT22;4673;53.458;9.940;2023-05-15T00:38:10;11.40;74.50
9271;DHT22;4673;53.458;9.940;2023-05-15T00:40:36;11.30;75.00
9271;DHT22;4673;53.458;9.940;2023-05-15T00:43:04;11.30;75.40
9271;DHT22;4673;53.458;9.940;2023-05-15T00:45:31;11.40;75.80
9271;DHT22;4673;53.458;9.940;2023-05-15T00:47:57;11.30;75.90
9271;DHT22;4673;53.458;9.940;2023-05-15T00:50:23;11.30;75.90
9271;DHT22;4673;53.458;9.940;2023-05-15T00:52:50;11.30;75.90
9271;DHT22;4673;53.458;9.940;2023-05-15T00:55:15;11.30;76.20
9271;DHT22;4673;53.458;9.940;2023-05-15T00:57:43;11.20;76.30
9271;DHT22;4673;53.458;9.940;2023-05-15T01:00:09;11.20;76.70
9271;DHT22;4673;53.458;9.940;2023-05-15T01:02:35;11.20;76.70
9271;DHT22;4673;53.458;9.940;2023-05-15T01:05:02;11.20;76.90
9271;DHT22;4673;53.458;9.940;2023-05-15T01:07:32;11.20;77.10
9271;DHT22;4673;53.458;9.940;2023-05-15T01:10:00;11.20;77.20
9271;DHT22;4673;53.458;9.940;2023-05-15T01:12:29;11.10;77.40
9271;DHT22;4673;53.458;9.940;2023-05-15T01:14:56;11.10;77.90
9271;DHT22;4673;53.458;9.940;2023-05-15T01:17:22;11.20;77.90
9271;DHT22;4673;53.458;9.940;2023-05-15T01:19:49;11.10;78.30
9271;DHT22;4673;53.458;9.940;2023-05-15T01:28:22;11.10;78.30
9271;DHT22;4673;53.458;9.940;2023-05-15T01:30:51;11.10;78.40
9271;DHT22;4673;53.458;9.940;2023-05-15T01:38:46;11.10;79.10
9271;DHT22;4673;53.458;9.940;2023-05-15T01:41:28;11.10;79.00
9271;DHT22;4673;53.458;9.940;2023-05-15T01:44:04;11.10;79.30
9271;DHT22;4673;53.458;9.940;2023-05-15T01:46:30;11.10;79.20
9271;DHT22;4673;53.458;9.940;2023-05-15T01:49:00;11.10;79.30
9271;DHT22;4673;53.458;9.940;2023-05-15T01:51:26;11.20;79.50
9271;DHT22;4673;53.458;9.940;2023-05-15T01:53:53;11.30;79.80
9271;DHT22;4673;53.458;9.940;2023-05-15T01:56:21;11.20;79.70
9271;DHT22;4673;53.458;9.940;2023-05-15T01:58:49;11.20;79.80
9271;DHT22;4673;53.458;9.940;2023-05-15T02:01:16;11.20;80.00
9271;DHT22;4673;53.458;9.940;2023-05-15T02:03:44;11.20;80.10
9271;DHT22;4673;53.458;9.940;2023-05-15T02:06:11;11.20;80.30
9271;DHT22;4673;53.458;9.940;2023-05-15T02:08:38;11.20;80.40
9271;DHT22;4673;53.458;9.940;2023-05-15T02:11:05;11.20;80.70
9271;DHT22;4673;53.458;9.940;2023-05-15T02:13:32;11.30;80.80
9271;DHT22;4673;53.458;9.940;2023-05-15T02:15:58;11.30;80.80
9271;DHT22;4673;53.458;9.940;2023-05-15T02:18:24;11.30;80.80
9271;DHT22;4673;53.458;9.940;2023-05-15T02:20:49;11.30;80.80
9271;DHT22;4673;53.458;9.940;2023-05-15T02:23:15;11.30;80.80
9271;DHT22;4673;53.458;9.940;2023-05-15T02:26:00;11.20;80.70
9271;DHT22;4673;53.458;9.940;2023-05-15T02:28:46;11.20;80.80
9271;DHT22;4673;53.458;9.940;2023-05-15T02:31:19;11.20;80.70
9271;DHT22;4673;53.458;9.940;2023-05-15T02:33:57;11.10;80.80
9271;DHT22;4673;53.458;9.940;2023-05-15T02:36:30;11.00;80.90
9271;DHT22;4673;53.458;9.940;2023-05-15T02:38:58;11.00;80.90
9271;DHT22;4673;53.458;9.940;2023-05-15T02:41:23;11.00;81.20
9271;DHT22;4673;53.458;9.940;2023-05-15T02:43:50;10.90;81.60
9271;DHT22;4673;53.458;9.940;2023-05-15T02:46:18;10.80;81.80
9271;DHT22;4673;53.458;9.940;2023-05-15T02:48:46;10.70;82.40
9271;DHT22;4673;53.458;9.940;2023-05-15T02:51:12;10.70;82.70
9271;DHT22;4673;53.458;9.940;2023-05-15T02:53:39;10.60;82.90
9271;DHT22;4673;53.458;9.940;2023-05-15T02:56:05;10.60;83.30
9271;DHT22;4673;53.458;9.940;2023-05-15T02:58:32;10.60;83.70
9271;DHT22;4673;53.458;9.940;2023-05-15T03:00:58;10.60;83.90
9271;DHT22;4673;53.458;9.940;2023-05-15T03:03:23;10.50;84.10
9271;DHT22;4673;53.458;9.940;2023-05-15T03:05:49;10.40;83.90
9271;DHT22;4673;53.458;9.940;2023-05-15T03:08:15;10.40;84.00
9271;DHT22;4673;53.458;9.940;2023-05-15T03:10:40;10.30;84.60
9271;DHT22;4673;53.458;9.940;2023-05-15T03:13:06;10.30;85.00
9271;DHT22;4673;53.458;9.940;2023-05-15T03:15:32;10.30;85.10
9271;DHT22;4673;53.458;9.940;2023-05-15T03:17:57;10.20;85.30
9271;DHT22;4673;53.458;9.940;2023-05-15T03:20:23;10.20;85.70
9271;DHT22;4673;53.458;9.940;2023-05-15T03:22:48;10.20;86.10
9271;DHT22;4673;53.458;9.940;2023-05-15T03:25:14;10.20;86.70
9271;DHT22;4673;53.458;9.940;2023-05-15T03:27:40;10.20;86.70
9271;DHT22;4673;53.458;9.940;2023-05-15T03:30:06;10.30;86.90
9271;DHT22;4673;53.458;9.940;2023-05-15T03:32:32;10.30;87.00
9271;DHT22;4673;53.458;9.940;2023-05-15T03:34:57;10.30;86.90
9271;DHT22;4673;53.458;9.940;2023-05-15T03:37:23;10.30;86.80
9271;DHT22;4673;53.458;9.940;2023-05-15T03:39:49;10.30;86.80
9271;DHT22;4673;53.458;9.940;2023-05-15T03:42:15;10.30;87.00
9271;DHT22;4673;53.458;9.940;2023-05-15T03:44:46;10.30;87.10
9271;DHT22;4673;53.458;9.940;2023-05-15T03:47:12;10.30;87.00
9271;DHT22;4673;53.458;9.940;2023-05-15T03:49:37;10.40;86.70
9271;DHT22;4673;53.458;9.940;2023-05-15T03:52:04;10.40;86.90
9271;DHT22;4673;53.458;9.940;2023-05-15T03:54:30;10.30;86.80
9271;DHT22;4673;53.458;9.940;2023-05-15T03:56:56;10.40;86.80
9271;DHT22;4673;53.458;9.940;2023-05-15T03:59:21;10.40;87.00
9271;DHT22;4673;53.458;9.940;2023-05-15T04:01:47;10.40;87.10
9271;DHT22;4673;53.458;9.940;2023-05-15T04:04:12;10.50;87.20
9271;DHT22;4673;53.458;9.940;2023-05-15T04:06:38;10.50;87.30
9271;DHT22;4673;53.458;9.940;2023-05-15T04:09:04;10.50;87.10
9271;DHT22;4673;53.458;9.940;2023-05-15T04:11:29;10.60;87.30
9271;DHT22;4673;53.458;9.940;2023-05-15T04:13:56;10.70;87.20
9271;DHT22;4673;53.458;9.940;2023-05-15T04:16:21;10.80;87.20
9271;DHT22;4673;53.458;9.940;2023-05-15T04:18:47;10.90;86.90
9271;DHT22;4673;53.458;9.940;2023-05-15T04:21:13;10.90;86.60
9271;DHT22;4673;53.458;9.940;2023-05-15T04:23:38;11.00;86.50
9271;DHT22;4673;53.458;9.940;2023-05-15T04:26:06;11.20;86.30
9271;DHT22;4673;53.458;9.940;2023-05-15T04:28:32;11.30;85.80
9271;DHT22;4673;53.458;9.940;2023-05-15T04:30:58;11.40;85.50
9271;DHT22;4673;53.458;9.940;2023-05-15T04:33:24;11.50;85.20
9271;DHT22;4673;53.458;9.940;2023-05-15T04:35:50;11.60;84.80
9271;DHT22;4673;53.458;9.940;2023-05-15T04:38:16;11.60;84.10
9271;DHT22;4673;53.458;9.940;2023-05-15T04:40:42;11.70;84.00
9271;DHT22;4673;53.458;9.940;2023-05-15T04:43:08;11.80;83.90
9271;DHT22;4673;53.458;9.940;2023-05-15T04:45:34;12.00;84.10
9271;DHT22;4673;53.458;9.940;2023-05-15T04:47:59;12.20;83.10
9271;DHT22;4673;53.458;9.940;2023-05-15T04:50:25;12.30;82.30
9271;DHT22;4673;53.458;9.940;2023-05-15T04:52:51;12.40;81.80
9271;DHT22;4673;53.458;9.940;2023-05-15T04:55:17;12.50;81.90
9271;DHT22;4673;53.458;9.940;2023-05-15T04:57:44;12.70;81.70
9271;DHT22;4673;53.458;9.940;2023-05-15T05:00:11;13.00;81.70
9271;DHT22;4673;53.458;9.940;2023-05-15T05:02:40;13.30;80.60
9271;DHT22;4673;53.458;9.940;2023-05-15T05:05:08;13.60;78.90
9271;DHT22;4673;53.458;9.940;2023-05-15T05:07:34;13.90;77.80
9271;DHT22;4673;53.458;9.940;2023-05-15T05:10:00;13.90;76.60
9271;DHT22;4673;53.458;9.940;2023-05-15T05:12:26;14.00;75.60
9271;DHT22;4673;53.458;9.940;2023-05-15T05:14:51;14.00;74.70
9271;DHT22;4673;53.458;9.940;2023-05-15T05:17:17;14.00;74.40
9271;DHT22;4673;53.458;9.940;2023-05-15T05:19:43;14.00;74.30
9271;DHT22;4673;53.458;9.940;2023-05-15T05:22:10;14.00;73.00
9271;DHT22;4673;53.458;9.940;2023-05-15T05:24:36;14.00;72.60
9271;DHT22;4673;53.458;9.940;2023-05-15T05:27:02;14.10;72.40
9271;DHT22;4673;53.458;9.940;2023-05-15T05:29:29;14.20;70.30
9271;DHT22;4673;53.458;9.940;2023-05-15T05:31:55;14.30;69.00
9271;DHT22;4673;53.458;9.940;2023-05-15T05:34:21;14.50;66.50
9271;DHT22;4673;53.458;9.940;2023-05-15T05:36:47;14.50;65.30
9271;DHT22;4673;53.458;9.940;2023-05-15T05:39:14;14.50;65.30
9271;DHT22;4673;53.458;9.940;2023-05-15T05:41:41;14.60;65.20
9271;DHT22;4673;53.458;9.940;2023-05-15T05:44:07;14.60;65.50
9271;DHT22;4673;53.458;9.940;2023-05-15T05:46:33;14.50;65.20
9271;DHT22;4673;53.458;9.940;2023-05-15T05:48:58;14.50;65.10
9271;DHT22;4673;53.458;9.940;2023-05-15T05:51:24;14.60;65.80
9271;DHT22;4673;53.458;9.940;2023-05-15T05:53:49;14.90;66.30
9271;DHT22;4673;53.458;9.940;2023-05-15T05:56:15;15.50;67.00
9271;DHT22;4673;53.458;9.940;2023-05-15T05:58:41;16.10;61.70
9271;DHT22;4673;53.458;9.940;2023-05-15T06:01:07;16.60;60.30
9271;DHT22;4673;53.458;9.940;2023-05-15T06:03:33;16.70;57.50
9271;DHT22;4673;53.458;9.940;2023-05-15T06:06:00;16.40;58.30
9271;DHT22;4673;53.458;9.940;2023-05-15T06:08:28;16.00;59.00
9271;DHT22;4673;53.458;9.940;2023-05-15T06:10:54;15.70;58.90
9271;DHT22;4673;53.458;9.940;2023-05-15T06:13:20;15.40;60.20
9271;DHT22;4673;53.458;9.940;2023-05-15T06:15:45;15.30;60.90
9271;DHT22;4673;53.458;9.940;2023-05-15T06:18:11;15.20;61.60
9271;DHT22;4673;53.458;9.940;2023-05-15T06:20:37;15.20;62.20
9271;DHT22;4673;53.458;9.940;2023-05-15T06:23:03;15.30;62.00
9271;DHT22;4673;53.458;9.940;2023-05-15T06:25:28;15.40;62.40
9271;DHT22;4673;53.458;9.940;2023-05-15T06:27:57;15.60;61.00
9271;DHT22;4673;53.458;9.940;2023-05-15T06:30:23;15.50;61.30
9271;DHT22;4673;53.458;9.940;2023-05-15T06:32:49;15.80;62.30
9271;DHT22;4673;53.458;9.940;2023-05-15T06:35:14;15.80;59.40
9271;DHT22;4673;53.458;9.940;2023-05-15T06:37:40;15.70;59.60
9271;DHT22;4673;53.458;9.940;2023-05-15T06:40:06;15.70;59.60
9271;DHT22;4673;53.458;9.940;2023-05-15T06:42:32;15.60;61.20
9271;DHT22;4673;53.458;9.940;2023-05-15T06:44:57;15.60;61.20
9271;DHT22;4673;53.458;9.940;2023-05-15T06:47:24;15.60;60.90
9271;DHT22;4673;53.458;9.940;2023-05-15T06:49:49;15.70;61.00
9271;DHT22;4673;53.458;9.940;2023-05-15T06:52:15;15.90;60.30
9271;DHT22;4673;53.458;9.940;2023-05-15T06:54:41;15.80;60.60
9271;DHT22;4673;53.458;9.940;2023-05-15T06:57:07;16.00;60.90
9271;DHT22;4673;53.458;9.940;2023-05-15T06:59:33;16.20;59.90
9271;DHT22;4673;53.458;9.940;2023-05-15T07:02:01;16.30;57.10
9271;DHT22;4673;53.458;9.940;2023-05-15T07:04:26;16.40;56.40
9271;DHT22;4673;53.458;9.940;2023-05-15T07:06:53;16.40;54.70
9271;DHT22;4673;53.458;9.940;2023-05-15T07:09:18;16.40;55.70
9271;DHT22;4673;53.458;9.940;2023-05-15T07:11:44;16.40;53.70
9271;DHT22;4673;53.458;9.940;2023-05-15T07:14:09;16.30;54.90
9271;DHT22;4673;53.458;9.940;2023-05-15T07:16:35;16.40;55.00
9271;DHT22;4673;53.458;9.940;2023-05-15T07:19:01;16.60;55.00
9271;DHT22;4673;53.458;9.940;2023-05-15T07:21:26;16.80;53.60
9271;DHT22;4673;53.458;9.940;2023-05-15T07:23:52;16.80;50.10
9271;DHT22;4673;53.458;9.940;2023-05-15T07:26:17;16.80;50.70
9271;DHT22;4673;53.458;9.940;2023-05-15T07:28:43;16.90;50.60
9271;DHT22;4673;53.458;9.940;2023-05-15T07:31:09;17.00;51.70
9271;DHT22;4673;53.458;9.940;2023-05-15T07:33:34;17.00;50.80
9271;DHT22;4673;53.458;9.940;2023-05-15T07:36:00;17.00;51.30
9271;DHT22;4673;53.458;9.940;2023-05-15T07:38:26;17.10;50.80
9271;DHT22;4673;53.458;9.940;2023-05-15T07:40:51;17.40;50.50
9271;DHT22;4673;53.458;9.940;2023-05-15T07:43:17;17.50;50.00
9271;DHT22;4673;53.458;9.940;2023-05-15T07:45:42;17.50;48.80
9271;DHT22;4673;53.458;9.940;2023-05-15T07:48:16;17.60;49.60
9271;DHT22;4673;53.458;9.940;2023-05-15T07:50:43;17.60;49.70
9271;DHT22;4673;53.458;9.940;2023-05-15T07:53:09;17.60;49.40
9271;DHT22;4673;53.458;9.940;2023-05-15T07:55:35;17.70;49.70
9271;DHT22;4673;53.458;9.940;2023-05-15T07:58:01;17.80;50.00
9271;DHT22;4673;53.458;9.940;2023-05-15T08:00:26;17.90;50.40
9271;DHT22;4673;53.458;9.940;2023-05-15T08:02:52;18.00;50.50
9271;DHT22;4673;53.458;9.940;2023-05-15T08:05:18;18.00;49.00
9271;DHT22;4673;53.458;9.940;2023-05-15T08:07:44;17.90;47.60
9271;DHT22;4673;53.458;9.940;2023-05-15T08:10:09;17.90;46.10
9271;DHT22;4673;53.458;9.940;2023-05-15T08:12:35;18.10;47.00
9271;DHT22;4673;53.458;9.940;2023-05-15T08:15:01;18.20;46.50
9271;DHT22;4673;53.458;9.940;2023-05-15T08:17:27;18.40;45.50
9271;DHT22;4673;53.458;9.940;2023-05-15T08:19:53;18.50;44.10
9271;DHT22;4673;53.458;9.940;2023-05-15T08:22:18;18.40;39.90
9271;DHT22;4673;53.458;9.940;2023-05-15T08:24:44;18.50;41.40
9271;DHT22;4673;53.458;9.940;2023-05-15T08:27:10;18.70;40.70
9271;DHT22;4673;53.458;9.940;2023-05-15T08:29:36;18.80;40.50
9271;DHT22;4673;53.458;9.940;2023-05-15T08:32:02;18.90;39.80
9271;DHT22;4673;53.458;9.940;2023-05-15T08:34:28;19.00;40.20
9271;DHT22;4673;53.458;9.940;2023-05-15T08:36:53;19.10;39.40
9271;DHT22;4673;53.458;9.940;2023-05-15T08:39:20;19.20;38.50
9271;DHT22;4673;53.458;9.940;2023-05-15T08:44:40;19.40;37.10
9271;DHT22;4673;53.458;9.940;2023-05-15T08:47:06;19.40;36.40
9271;DHT22;4673;53.458;9.940;2023-05-15T08:52:21;19.40;34.90
9271;DHT22;4673;53.458;9.940;2023-05-15T08:54:47;19.40;34.40
9271;DHT22;4673;53.458;9.940;2023-05-15T08:57:13;19.40;31.50
9271;DHT22;4673;53.458;9.940;2023-05-15T08:59:39;19.40;32.10
9271;DHT22;4673;53.458;9.940;2023-05-15T09:02:05;19.70;32.20
9271;DHT22;4673;53.458;9.940;2023-05-15T09:04:31;19.80;30.10
9271;DHT22;4673;53.458;9.940;2023-05-15T09:07:02;19.80;29.00
9271;DHT22;4673;53.458;9.940;2023-05-15T09:09:29;19.90;28.60
9271;DHT22;4673;53.458;9.940;2023-05-15T09:11:58;20.10;25.90
9271;DHT22;4673;53.458;9.940;2023-05-15T09:14:25;20.10;25.60
9271;DHT22;4673;53.458;9.940;2023-05-15T09:16:50;20.30;26.00
9271;DHT22;4673;53.458;9.940;2023-05-15T09:19:18;20.30;25.60
9271;DHT22;4673;53.458;9.940;2023-05-15T09:21:45;20.20;20.50
9271;DHT22;4673;53.458;9.940;2023-05-15T09:24:21;20.20;20.50
9271;DHT22;4673;53.458;9.940;2023-05-15T09:27:05;20.30;19.20
9271;DHT22;4673;53.458;9.940;2023-05-15T09:29:32;20.30;20.60
9271;DHT22;4673;53.458;9.940;2023-05-15T09:32:02;20.50;19.70
9271;DHT22;4673;53.458;9.940;2023-05-15T09:34:32;20.50;20.60
9271;DHT22;4673;53.458;9.940;2023-05-15T09:37:02;20.60;21.70
9271;DHT22;4673;53.458;9.940;2023-05-15T09:39:28;20.70;22.70
9271;DHT22;4673;53.458;9.940;2023-05-15T09:42:08;20.70;21.40
9271;DHT22;4673;53.458;9.940;2023-05-15T09:44:34;20.70;21.90
9271;DHT22;4673;53.458;9.940;2023-05-15T09:47:00;20.90;21.60
9271;DHT22;4673;53.458;9.940;2023-05-15T09:49:30;20.90;20.40
9271;DHT22;4673;53.458;9.940;2023-05-15T09:52:00;20.90;20.80
9271;DHT22;4673;53.458;9.940;2023-05-15T09:54:26;21.00;20.70
9271;DHT22;4673;53.458;9.940;2023-05-15T09:56:54;20.90;21.40
9271;DHT22;4673;53.458;9.940;2023-05-15T09:59:20;20.80;21.70
9271;DHT22;4673;53.458;9.940;2023-05-15T10:01:50;21.00;21.40
9271;DHT22;4673;53.458;9.940;2023-05-15T10:04:17;21.10;19.20
9271;DHT22;4673;53.458;9.940;2023-05-15T10:06:45;21.00;19.20
9271;DHT22;4673;53.458;9.940;2023-05-15T10:09:12;21.30;16.00
9271;DHT22;4673;53.458;9.940;2023-05-15T10:11:43;21.10;13.40
9271;DHT22;4673;53.458;9.940;2023-05-15T10:14:10;21.10;13.10
9271;DHT22;4673;53.458;9.940;2023-05-15T10:16:37;21.20;13.70
9271;DHT22;4673;53.458;9.940;2023-05-15T10:19:07;21.20;14.10
9271;DHT22;4673;53.458;9.940;2023-05-15T10:21:38;21.40;14.40
9271;DHT22;4673;53.458;9.940;2023-05-15T10:24:04;21.50;13.70
9271;DHT22;4673;53.458;9.940;2023-05-15T10:26:40;21.40;12.90
9271;DHT22;4673;53.458;9.940;2023-05-15T10:29:11;21.50;13.20
9271;DHT22;4673;53.458;9.940;2023-05-15T10:31:38;21.50;13.30
9271;DHT22;4673;53.458;9.940;2023-05-15T10:34:05;21.60;13.40
9271;DHT22;4673;53.458;9.940;2023-05-15T10:36:32;21.90;13.30
9271;DHT22;4673;53.458;9.940;2023-05-15T10:39:03;21.70;10.80
9271;DHT22;4673;53.458;9.940;2023-05-15T10:41:30;21.70;13.00
9271;DHT22;4673;53.458;9.940;2023-05-15T10:44:00;21.80;12.10
9271;DHT22;4673;53.458;9.940;2023-05-15T10:46:26;21.60;11.60
9271;DHT22;4673;53.458;9.940;2023-05-15T10:48:53;21.50;12.40
9271;DHT22;4673;53.458;9.940;2023-05-15T10:51:28;21.60;12.90
9271;DHT22;4673;53.458;9.940;2023-05-15T10:53:54;21.80;11.30
9271;DHT22;4673;53.458;9.940;2023-05-15T10:56:35;21.80;12.10
9271;DHT22;4673;53.458;9.940;2023-05-15T10:59:10;21.50;12.20
9271;DHT22;4673;53.458;9.940;2023-05-15T11:01:38;21.40;13.30
9271;DHT22;4673;53.458;9.940;2023-05-15T11:04:11;21.40;13.10
9271;DHT22;4673;53.458;9.940;2023-05-15T11:06:40;21.50;13.40
9271;DHT22;4673;53.458;9.940;2023-05-15T11:12:00;21.20;13.70
9271;DHT22;4673;53.458;9.940;2023-05-15T11:14:28;21.20;13.70
9271;DHT22;4673;53.458;9.940;2023-05-15T11:21:59;21.90;13.00
9271;DHT22;4673;53.458;9.940;2023-05-15T11:27:18;22.20;11.60
9271;DHT22;4673;53.458;9.940;2023-05-15T11:30:06;22.50;10.10
9271;DHT22;4673;53.458;9.940;2023-05-15T11:32:42;22.60;10.50
9271;DHT22;4673;53.458;9.940;2023-05-15T11:35:12;22.30;10.50
9271;DHT22;4673;53.458;9.940;2023-05-15T11:37:46;22.30;11.30
9271;DHT22;4673;53.458;9.940;2023-05-15T11:40:13;22.50;10.10
9271;DHT22;4673;53.458;9.940;2023-05-15T11:42:40;22.60;10.90
9271;DHT22;4673;53.458;9.940;2023-05-15T11:45:08;23.10;10.90
9271;DHT22;4673;53.458;9.940;2023-05-15T11:47:34;23.10;8.80
9271;DHT22;4673;53.458;9.940;2023-05-15T11:50:03;23.10;8.00
9271;DHT22;4673;53.458;9.940;2023-05-15T11:52:29;22.90;9.60
9271;DHT22;4673;53.458;9.940;2023-05-15T11:54:57;23.00;8.10
9271;DHT22;4673;53.458;9.940;2023-05-15T11:57:23;23.00;9.70
9271;DHT22;4673;53.458;9.940;2023-05-15T11:59:53;22.90;10.70
9271;DHT22;4673;53.458;9.940;2023-05-15T12:02:19;22.80;10.40
9271;DHT22;4673;53.458;9.940;2023-05-15T12:04:48;22.60;11.60
9271;DHT22;4673;53.458;9.940;2023-05-15T12:07:14;22.40;12.80
9271;DHT22;4673;53.458;9.940;2023-05-15T12:09:41;22.30;12.90
9271;DHT22;4673;53.458;9.940;2023-05-15T12:12:12;22.30;13.30
9271;DHT22;4673;53.458;9.940;2023-05-15T12:14:38;22.20;13.90
9271;DHT22;4673;53.458;9.940;2023-05-15T12:17:04;22.00;14.50
9271;DHT22;4673;53.458;9.940;2023-05-15T12:19:30;21.90;15.50
9271;DHT22;4673;53.458;9.940;2023-05-15T12:21:57;21.60;16.40
9271;DHT22;4673;53.458;9.940;2023-05-15T12:24:25;21.40;17.60
9271;DHT22;4673;53.458;9.940;2023-05-15T12:26:51;21.30;19.60
9271;DHT22;4673;53.458;9.940;2023-05-15T12:29:17;21.30;21.20
9271;DHT22;4673;53.458;9.940;2023-05-15T12:31:43;21.20;23.20
9271;DHT22;4673;53.458;9.940;2023-05-15T12:34:09;21.10;22.00
9271;DHT22;4673;53.458;9.940;2023-05-15T12:36:35;21.20;21.40
9271;DHT22;4673;53.458;9.940;2023-05-15T12:39:04;21.20;20.10
9271;DHT22;4673;53.458;9.940;2023-05-15T12:41:31;21.30;21.10
9271;DHT22;4673;53.458;9.940;2023-05-15T12:43:57;21.40;21.30
9271;DHT22;4673;53.458;9.940;2023-05-15T12:46:24;21.30;20.30
9271;DHT22;4673;53.458;9.940;2023-05-15T12:48:50;21.00;20.20
9271;DHT22;4673;53.458;9.940;2023-05-15T12:51:16;20.90;20.50
9271;DHT22;4673;53.458;9.940;2023-05-15T12:53:44;21.00;20.90
9271;DHT22;4673;53.458;9.940;2023-05-15T12:56:15;21.00;21.00
9271;DHT22;4673;53.458;9.940;2023-05-15T12:58:40;21.00;21.40
9271;DHT22;4673;53.458;9.940;2023-05-15T13:01:06;20.90;20.70
9271;DHT22;4673;53.458;9.940;2023-05-15T13:03:32;20.70;22.20
9271;DHT22;4673;53.458;9.940;2023-05-15T13:05:58;20.80;22.50
9271;DHT22;4673;53.458;9.940;2023-05-15T13:08:26;21.00;22.50
9271;DHT22;4673;53.458;9.940;2023-05-15T13:10:56;21.20;22.20
9271;DHT22;4673;53.458;9.940;2023-05-15T13:13:22;21.20;22.50
9271;DHT22;4673;53.458;9.940;2023-05-15T13:15:47;21.00;23.10
9271;DHT22;4673;53.458;9.940;2023-05-15T13:18:16;21.20;25.10
9271;DHT22;4673;53.458;9.940;2023-05-15T13:20:47;21.00;27.90
9271;DHT22;4673;53.458;9.940;2023-05-15T13:23:16;21.00;30.20
9271;DHT22;4673;53.458;9.940;2023-05-15T13:25:42;21.10;31.20
9271;DHT22;4673;53.458;9.940;2023-05-15T13:28:09;21.00;32.30
9271;DHT22;4673;53.458;9.940;2023-05-15T13:30:35;20.80;34.80
9271;DHT22;4673;53.458;9.940;2023-05-15T13:33:03;20.50;37.30
9271;DHT22;4673;53.458;9.940;2023-05-15T13:35:29;20.50;38.70
9271;DHT22;4673;53.458;9.940;2023-05-15T13:37:55;20.80;38.40
9271;DHT22;4673;53.458;9.940;2023-05-15T13:40:21;21.00;38.30
9271;DHT22;4673;53.458;9.940;2023-05-15T13:42:47;21.30;38.10
9271;DHT22;4673;53.458;9.940;2023-05-15T13:45:14;21.40;35.60
9271;DHT22;4673;53.458;9.940;2023-05-15T13:47:40;21.60;35.40
9271;DHT22;4673;53.458;9.940;2023-05-15T13:50:11;21.30;36.20
9271;DHT22;4673;53.458;9.940;2023-05-15T13:52:38;21.20;36.00
9271;DHT22;4673;53.458;9.940;2023-05-15T13:55:04;21.20;36.10
9271;DHT22;4673;53.458;9.940;2023-05-15T13:57:30;21.30;36.10
9271;DHT22;4673;53.458;9.940;2023-05-15T13:59:56;21.40;35.90
9271;DHT22;4673;53.458;9.940;2023-05-15T14:02:22;21.30;36.00
9271;DHT22;4673;53.458;9.940;2023-05-15T14:04:53;21.40;37.00
9271;DHT22;4673;53.458;9.940;2023-05-15T14:07:21;21.70;35.50
9271;DHT22;4673;53.458;9.940;2023-05-15T14:09:47;21.90;36.40
9271;DHT22;4673;53.458;9.940;2023-05-15T14:12:13;22.30;34.30
9271;DHT22;4673;53.458;9.940;2023-05-15T14:14:38;22.40;33.10
9271;DHT22;4673;53.458;9.940;2023-05-15T14:17:04;22.10;30.10
9271;DHT22;4673;53.458;9.940;2023-05-15T14:19:30;21.50;32.40
9271;DHT22;4673;53.458;9.940;2023-05-15T14:21:55;21.30;34.90
9271;DHT22;4673;53.458;9.940;2023-05-15T14:24:21;21.10;35.20
9271;DHT22;4673;53.458;9.940;2023-05-15T14:26:47;21.00;36.90
9271;DHT22;4673;53.458;9.940;2023-05-15T14:29:12;20.90;35.20
9271;DHT22;4673;53.458;9.940;2023-05-15T14:31:40;20.30;35.20
9271;DHT22;4673;53.458;9.940;2023-05-15T14:34:07;20.10;36.40
9271;DHT22;4673;53.458;9.940;2023-05-15T14:36:33;20.10;37.30
9271;DHT22;4673;53.458;9.940;2023-05-15T14:38:59;20.10;38.10
9271;DHT22;4673;53.458;9.940;2023-05-15T14:41:25;19.80;39.00
9271;DHT22;4673;53.458;9.940;2023-05-15T14:43:51;19.70;40.00
9271;DHT22;4673;53.458;9.940;2023-05-15T14:46:17;19.90;39.90
9271;DHT22;4673;53.458;9.940;2023-05-15T14:48:42;19.60;40.20
9271;DHT22;4673;53.458;9.940;2023-05-15T14:51:08;19.30;41.80
9271;DHT22;4673;53.458;9.940;2023-05-15T14:53:34;19.40;43.80
9271;DHT22;4673;53.458;9.940;2023-05-15T14:55:59;19.40;43.20
9271;DHT22;4673;53.458;9.940;2023-05-15T14:58:25;19.70;43.20
9271;DHT22;4673;53.458;9.940;2023-05-15T15:00:51;19.90;42.50
9271;DHT22;4673;53.458;9.940;2023-05-15T15:03:17;19.50;42.90
9271;DHT22;4673;53.458;9.940;2023-05-15T15:05:43;19.60;43.70
9271;DHT22;4673;53.458;9.940;2023-05-15T15:08:09;19.90;42.80
9271;DHT22;4673;53.458;9.940;2023-05-15T15:10:37;20.00;41.90
9271;DHT22;4673;53.458;9.940;2023-05-15T15:13:04;19.50;41.30
9271;DHT22;4673;53.458;9.940;2023-05-15T15:15:30;18.70;44.30
9271;DHT22;4673;53.458;9.940;2023-05-15T15:17:56;18.40;47.10
9271;DHT22;4673;53.458;9.940;2023-05-15T15:20:23;18.30;48.60
9271;DHT22;4673;53.458;9.940;2023-05-15T15:22:50;18.10;50.50
9271;DHT22;4673;53.458;9.940;2023-05-15T15:25:16;17.90;51.80
9271;DHT22;4673;53.458;9.940;2023-05-15T15:27:42;17.70;52.20
9271;DHT22;4673;53.458;9.940;2023-05-15T15:30:08;17.50;53.00
9271;DHT22;4673;53.458;9.940;2023-05-15T15:32:35;17.40;53.70
9271;DHT22;4673;53.458;9.940;2023-05-15T15:35:01;17.30;54.30
9271;DHT22;4673;53.458;9.940;2023-05-15T15:37:32;17.30;54.80
9271;DHT22;4673;53.458;9.940;2023-05-15T15:39:58;17.20;54.80
9271;DHT22;4673;53.458;9.940;2023-05-15T15:42:25;17.20;54.90
9271;DHT22;4673;53.458;9.940;2023-05-15T15:44:52;17.20;55.10
9271;DHT22;4673;53.458;9.940;2023-05-15T15:47:18;17.20;55.40
9271;DHT22;4673;53.458;9.940;2023-05-15T15:49:43;17.00;56.00
9271;DHT22;4673;53.458;9.940;2023-05-15T15:52:09;17.00;56.60
9271;DHT22;4673;53.458;9.940;2023-05-15T15:54:35;17.10;56.80
9271;DHT22;4673;53.458;9.940;2023-05-15T15:57:01;17.10;57.30
9271;DHT22;4673;53.458;9.940;2023-05-15T15:59:27;17.10;57.10
9271;DHT22;4673;53.458;9.940;2023-05-15T16:01:53;17.10;57.30
9271;DHT22;4673;53.458;9.940;2023-05-15T16:04:18;17.30;57.40
9271;DHT22;4673;53.458;9.940;2023-05-15T16:06:44;17.30;57.10
9271;DHT22;4673;53.458;9.940;2023-05-15T16:09:10;17.10;57.40
9271;DHT22;4673;53.458;9.940;2023-05-15T16:11:35;17.00;58.00
9271;DHT22;4673;53.458;9.940;2023-05-15T16:14:01;16.90;59.00
9271;DHT22;4673;53.458;9.940;2023-05-15T16:16:27;16.80;59.40
9271;DHT22;4673;53.458;9.940;2023-05-15T16:18:52;16.90;60.10
9271;DHT22;4673;53.458;9.940;2023-05-15T16:21:18;17.00;59.90
9271;DHT22;4673;53.458;9.940;2023-05-15T16:23:43;17.10;59.50
9271;DHT22;4673;53.458;9.940;2023-05-15T16:26:10;17.20;59.50
9271;DHT22;4673;53.458;9.940;2023-05-15T16:28:36;17.30;58.50